sensor_id;sensor_type;location;lat;lon;timestamp;pressure;altitude;pressure_sealevel;temperature;humidity
31775;BME280;66189;49.000;11.640;2023-02-20T00:01:26;96875.25;;;5.30;86.78
31775;BME280;66189;49.000;11.640;2023-02-20T00:03:26;96874.25;;;5.26;86.92
31775;BME280;66189;49.000;11.640;2023-02-20T00:05:27;96876.16;;;5.26;86.82
31775;BME280;66189;49.000;11.640;2023-02-20T00:07:27;96887.22;;;5.33;86.76
31775;BME280;66189;49.000;11.640;2023-02-20T00:09:28;96888.47;;;5.36;86.67
31775;BME280;66189;49.000;11.640;2023-02-20T00:11:28;96883.34;;;5.39;86.53
31775;BME280;66189;49.000;11.640;2023-02-20T00:13:28;96886.72;;;5.31;86.67
31775;BME280;66189;49.000;11.640;2023-02-20T00:15:29;96883.56;;;5.29;87.08
31775;BME280;66189;49.000;11.640;2023-02-20T00:17:29;96884.53;;;5.33;86.78
31775;BME280;66189;49.000;11.640;2023-02-20T00:19:29;96880.28;;;5.32;86.89
31775;BME280;66189;49.000;11.640;2023-02-20T00:21:30;96887.22;;;5.33;86.70
31775;BME280;66189;49.000;11.640;2023-02-20T00:23:33;96882.97;;;5.32;86.76
31775;BME280;66189;49.000;11.640;2023-02-20T00:25:33;96878.91;;;5.34;86.74
31775;BME280;66189;49.000;11.640;2023-02-20T00:27:34;96882.97;;;5.32;86.87
31775;BME280;66189;49.000;11.640;2023-02-20T00:29:34;96875.44;;;5.34;86.32
31775;BME280;66189;49.000;11.640;2023-02-20T00:31:35;96874.44;;;5.44;86.04
31775;BME280;66189;49.000;11.640;2023-02-20T00:33:36;96877.72;;;5.41;85.93
31775;BME280;66189;49.000;11.640;2023-02-20T00:35:37;96877.41;;;5.42;86.05
31775;BME280;66189;49.000;11.640;2023-02-20T00:37:38;96880.69;;;5.39;86.40
31775;BME280;66189;49.000;11.640;2023-02-20T00:39:38;96876.91;;;5.40;86.41
31775;BME280;66189;49.000;11.640;2023-02-20T00:41:39;96881.38;;;5.31;87.15
31775;BME280;66189;49.000;11.640;2023-02-20T00:43:40;96882.84;;;5.37;87.12
31775;BME280;66189;49.000;11.640;2023-02-20T00:45:40;96890.19;;;5.31;87.49
31775;BME280;66189;49.000;11.640;2023-02-20T00:47:40;96877.16;;;5.30;87.36
31775;BME280;66189;49.000;11.640;2023-02-20T00:49:41;96883.06;;;5.27;87.50
31775;BME280;66189;49.000;11.640;2023-02-20T00:51:42;96877.44;;;5.28;87.40
31775;BME280;66189;49.000;11.640;2023-02-20T00:53:43;96884.53;;;5.33;87.06
31775;BME280;66189;49.000;11.640;2023-02-20T00:55:43;96877.91;;;5.30;87.32
31775;BME280;66189;49.000;11.640;2023-02-20T00:57:44;96885.31;;;5.33;87.06
31775;BME280;66189;49.000;11.640;2023-02-20T00:59:45;96882.47;;;5.30;87.29
31775;BME280;66189;49.000;11.640;2023-02-20T01:01:45;96893.44;;;5.28;87.33
31775;BME280;66189;49.000;11.640;2023-02-20T01:03:45;96884.63;;;5.28;86.75
31775;BME280;66189;49.000;11.640;2023-02-20T01:05:46;96890.47;;;5.30;86.67
31775;BME280;66189;49.000;11.640;2023-02-20T01:07:46;96885.16;;;5.30;86.98
31775;BME280;66189;49.000;11.640;2023-02-20T01:09:47;96890.47;;;5.30;87.15
31775;BME280;66189;49.000;11.640;2023-02-20T01:11:49;96879.41;;;5.23;87.37
31775;BME280;66189;49.000;11.640;2023-02-20T01:13:49;96884.47;;;5.24;87.28
31775;BME280;66189;49.000;11.640;2023-02-20T01:15:49;96881.97;;;5.28;86.75
31775;BME280;66189;49.000;11.640;2023-02-20T01:17:50;96887.91;;;5.25;86.96
31775;BME280;66189;49.000;11.640;2023-02-20T01:19:50;96879.31;;;5.28;86.80
31775;BME280;66189;49.000;11.640;2023-02-20T01:21:53;96876.53;;;5.33;86.69
31775;BME280;66189;49.000;11.640;2023-02-20T01:23:54;96880.13;;;5.28;86.44
31775;BME280;66189;49.000;11.640;2023-02-20T01:25:54;96875.66;;;5.24;86.59
31775;BME280;66189;49.000;11.640;2023-02-20T01:27:54;96876.63;;;5.28;86.14
31775;BME280;66189;49.000;11.640;2023-02-20T01:29:55;96884.84;;;5.31;86.66
31775;BME280;66189;49.000;11.640;2023-02-20T01:31:55;96880.41;;;5.27;86.24
31775;BME280;66189;49.000;11.640;2023-02-20T01:33:55;96881.88;;;5.33;86.41
31775;BME280;66189;49.000;11.640;2023-02-20T01:35:55;96883.16;;;5.22;86.65
31775;BME280;66189;49.000;11.640;2023-02-20T01:37:56;96870.59;;;5.22;86.38
31775;BME280;66189;49.000;11.640;2023-02-20T01:39:58;96867.16;;;5.22;86.37
31775;BME280;66189;49.000;11.640;2023-02-20T01:42:05;96862.72;;;5.17;86.81
31775;BME280;66189;49.000;11.640;2023-02-20T01:44:10;96871.50;;;5.18;86.99
31775;BME280;66189;49.000;11.640;2023-02-20T01:46:49;96873.09;;;5.19;86.85
31775;BME280;66189;49.000;11.640;2023-02-20T01:48:42;96875.16;;;5.22;87.26
31775;BME280;66189;49.000;11.640;2023-02-20T01:50:42;96873.28;;;5.22;86.33
31775;BME280;66189;49.000;11.640;2023-02-20T01:52:43;96871.50;;;5.18;86.92
31775;BME280;66189;49.000;11.640;2023-02-20T01:54:46;96875.56;;;5.29;86.63
31775;BME280;66189;49.000;11.640;2023-02-20T01:56:48;96875.94;;;5.22;86.60
31775;BME280;66189;49.000;11.640;2023-02-20T01:58:49;96879.13;;;5.24;86.65
31775;BME280;66189;49.000;11.640;2023-02-20T02:00:50;96867.16;;;5.22;86.62
31775;BME280;66189;49.000;11.640;2023-02-20T02:02:51;96865.09;;;5.19;86.83
31775;BME280;66189;49.000;11.640;2023-02-20T02:04:54;96861.81;;;5.22;86.55
31775;BME280;66189;49.000;11.640;2023-02-20T02:06:56;96856.31;;;5.18;86.58
31775;BME280;66189;49.000;11.640;2023-02-20T02:08:57;96854.22;;;5.29;86.64
31775;BME280;66189;49.000;11.640;2023-02-20T02:11:02;96854.13;;;5.20;86.58
31775;BME280;66189;49.000;11.640;2023-02-20T02:13:03;96852.53;;;5.19;86.57
31775;BME280;66189;49.000;11.640;2023-02-20T02:15:11;96855.19;;;5.19;86.42
31775;BME280;66189;49.000;11.640;2023-02-20T02:17:17;96854.72;;;5.17;86.68
31775;BME280;66189;49.000;11.640;2023-02-20T02:23:38;96849.78;;;5.24;86.14
31775;BME280;66189;49.000;11.640;2023-02-20T02:28:07;96846.31;;;5.24;85.80
31775;BME280;66189;49.000;11.640;2023-02-20T02:38:47;96849.38;;;5.17;86.12
31775;BME280;66189;49.000;11.640;2023-02-20T02:40:53;96851.16;;;5.22;86.11
31775;BME280;66189;49.000;11.640;2023-02-20T02:43:07;96849.78;;;5.24;85.86
31775;BME280;66189;49.000;11.640;2023-02-20T02:45:15;96841.78;;;5.24;85.76
31775;BME280;66189;49.000;11.640;2023-02-20T02:47:18;96840.78;;;5.20;85.78
31775;BME280;66189;49.000;11.640;2023-02-20T02:51:25;96841.22;;;5.13;85.92
31775;BME280;66189;49.000;11.640;2023-02-20T02:53:26;96837.63;;;5.18;85.85
31775;BME280;66189;49.000;11.640;2023-02-20T02:55:27;96834.00;;;5.14;86.17
31775;BME280;66189;49.000;11.640;2023-02-20T02:57:28;96824.47;;;5.22;85.52
31775;BME280;66189;49.000;11.640;2023-02-20T02:59:30;96831.81;;;5.16;85.72
31775;BME280;66189;49.000;11.640;2023-02-20T03:01:32;96817.69;;;5.15;85.49
31775;BME280;66189;49.000;11.640;2023-02-20T03:03:34;96821.44;;;5.14;86.10
31775;BME280;66189;49.000;11.640;2023-02-20T03:05:54;96818.28;;;5.12;85.83
31775;BME280;66189;49.000;11.640;2023-02-20T03:07:56;96828.06;;;5.17;85.67
31775;BME280;66189;49.000;11.640;2023-02-20T03:10:03;96827.06;;;5.13;85.68
31775;BME280;66189;49.000;11.640;2023-02-20T03:12:08;96831.03;;;5.15;85.38
31775;BME280;66189;49.000;11.640;2023-02-20T03:14:11;96832.00;;;5.20;85.17
31775;BME280;66189;49.000;11.640;2023-02-20T03:16:53;96825.69;;;5.15;85.37
31775;BME280;66189;49.000;11.640;2023-02-20T03:18:58;96828.53;;;5.19;84.83
31775;BME280;66189;49.000;11.640;2023-02-20T03:21:02;96822.25;;;5.15;84.93
31775;BME280;66189;49.000;11.640;2023-02-20T03:23:04;96823.63;;;5.12;85.27
31775;BME280;66189;49.000;11.640;2023-02-20T03:25:08;96824.69;;;5.11;85.33
31775;BME280;66189;49.000;11.640;2023-02-20T03:27:11;96824.41;;;5.13;84.90
31775;BME280;66189;49.000;11.640;2023-02-20T03:29:13;96828.66;;;5.14;84.64
31775;BME280;66189;49.000;11.640;2023-02-20T03:33:18;96822.41;;;5.19;84.76
31775;BME280;66189;49.000;11.640;2023-02-20T03:35:39;96822.94;;;5.07;85.22
31775;BME280;66189;49.000;11.640;2023-02-20T03:37:59;96817.00;;;5.10;84.53
31775;BME280;66189;49.000;11.640;2023-02-20T03:40:20;96814.34;;;5.10;84.63
31775;BME280;66189;49.000;11.640;2023-02-20T03:42:41;96825.69;;;5.15;83.89
31775;BME280;66189;49.000;11.640;2023-02-20T03:45:07;96822.72;;;5.17;83.75
31775;BME280;66189;49.000;11.640;2023-02-20T03:47:08;96827.56;;;5.15;84.06
31775;BME280;66189;49.000;11.640;2023-02-20T03:49:10;96827.56;;;5.15;83.72
31775;BME280;66189;49.000;11.640;2023-02-20T03:51:14;96832.00;;;5.20;83.67
31775;BME280;66189;49.000;11.640;2023-02-20T03:53:36;96835.66;;;5.10;83.81
31775;BME280;66189;49.000;11.640;2023-02-20T03:55:37;96829.25;;;5.11;83.68
31775;BME280;66189;49.000;11.640;2023-02-20T03:57:43;96838.94;;;5.07;83.98
31775;BME280;66189;49.000;11.640;2023-02-20T04:01:45;96826.09;;;5.09;83.86
31775;BME280;66189;49.000;11.640;2023-02-20T04:03:47;96831.91;;;5.11;83.56
31775;BME280;66189;49.000;11.640;2023-02-20T04:05:49;96842.78;;;5.14;83.36
31775;BME280;66189;49.000;11.640;2023-02-20T04:08:01;96847.50;;;5.18;83.41
31775;BME280;66189;49.000;11.640;2023-02-20T04:10:08;96839.75;;;5.07;83.53
31775;BME280;66189;49.000;11.640;2023-02-20T04:14:11;96842.50;;;5.02;83.63
31775;BME280;66189;49.000;11.640;2023-02-20T04:16:14;96847.84;;;5.02;83.67
31775;BME280;66189;49.000;11.640;2023-02-20T04:18:17;96843.50;;;5.06;83.65
31775;BME280;66189;49.000;11.640;2023-02-20T04:20:20;96854.28;;;5.01;83.89
31775;BME280;66189;49.000;11.640;2023-02-20T04:22:31;96841.13;;;5.05;83.47
31775;BME280;66189;49.000;11.640;2023-02-20T04:24:36;96847.84;;;5.02;83.73
31775;BME280;66189;49.000;11.640;2023-02-20T04:26:39;96838.56;;;5.00;83.95
31775;BME280;66189;49.000;11.640;2023-02-20T04:28:40;96845.38;;;5.06;83.60
31775;BME280;66189;49.000;11.640;2023-02-20T04:30:41;96845.69;;;5.04;83.74
31775;BME280;66189;49.000;11.640;2023-02-20T04:32:43;96844.97;;;4.98;83.66
31775;BME280;66189;49.000;11.640;2023-02-20T04:34:44;96838.44;;;5.05;83.86
31775;BME280;66189;49.000;11.640;2023-02-20T04:36:45;96843.19;;;5.08;83.40
31775;BME280;66189;49.000;11.640;2023-02-20T04:38:45;96852.19;;;4.98;83.69
31775;BME280;66189;49.000;11.640;2023-02-20T04:40:49;96849.91;;;5.05;83.02
31775;BME280;66189;49.000;11.640;2023-02-20T04:42:50;96858.50;;;5.02;83.08
31775;BME280;66189;49.000;11.640;2023-02-20T04:44:51;96851.59;;;5.01;82.63
31775;BME280;66189;49.000;11.640;2023-02-20T04:46:52;96843.41;;;4.97;83.21
31775;BME280;66189;49.000;11.640;2023-02-20T04:48:53;96843.09;;;4.99;83.18
31775;BME280;66189;49.000;11.640;2023-02-20T04:50:54;96846.28;;;5.01;82.41
31775;BME280;66189;49.000;11.640;2023-02-20T04:52:54;96850.03;;;5.00;82.25
31775;BME280;66189;49.000;11.640;2023-02-20T04:54:55;96844.56;;;5.05;81.86
31775;BME280;66189;49.000;11.640;2023-02-20T04:56:55;96844.88;;;5.04;81.41
31775;BME280;66189;49.000;11.640;2023-02-20T04:58:56;96839.22;;;5.05;81.03
31775;BME280;66189;49.000;11.640;2023-02-20T05:00:56;96846.56;;;5.00;81.57
31775;BME280;66189;49.000;11.640;2023-02-20T05:02:57;96849.91;;;5.05;81.16
31775;BME280;66189;49.000;11.640;2023-02-20T05:04:57;96837.69;;;5.04;81.04
31775;BME280;66189;49.000;11.640;2023-02-20T05:06:58;96841.25;;;5.00;81.44
31775;BME280;66189;49.000;11.640;2023-02-20T05:08:58;96847.94;;;4.97;81.61
31775;BME280;66189;49.000;11.640;2023-02-20T05:10:58;96853.97;;;5.03;81.03
31775;BME280;66189;49.000;11.640;2023-02-20T05:12:59;96850.50;;;5.02;80.27
31775;BME280;66189;49.000;11.640;2023-02-20T05:14:59;96856.13;;;5.01;80.83
31775;BME280;66189;49.000;11.640;2023-02-20T05:16:59;96854.88;;;4.98;80.77
31775;BME280;66189;49.000;11.640;2023-02-20T05:19:00;96852.69;;;5.00;80.11
31775;BME280;66189;49.000;11.640;2023-02-20T05:21:00;96861.84;;;5.08;79.99
31775;BME280;66189;49.000;11.640;2023-02-20T05:23:19;96867.50;;;5.06;80.17
31775;BME280;66189;49.000;11.640;2023-02-20T05:25:19;96872.81;;;5.06;80.23
31775;BME280;66189;49.000;11.640;2023-02-20T05:27:20;96871.84;;;5.02;80.14
31775;BME280;66189;49.000;11.640;2023-02-20T05:29:21;96864.13;;;5.01;80.18
31775;BME280;66189;49.000;11.640;2023-02-20T05:31:21;96872.13;;;5.01;80.21
31775;BME280;66189;49.000;11.640;2023-02-20T05:33:22;96859.69;;;4.96;80.56
31775;BME280;66189;49.000;11.640;2023-02-20T05:35:22;96868.00;;;4.94;80.77
31775;BME280;66189;49.000;11.640;2023-02-20T05:37:23;96871.94;;;4.97;80.49
31775;BME280;66189;49.000;11.640;2023-02-20T05:39:23;96867.69;;;4.96;80.80
31775;BME280;66189;49.000;11.640;2023-02-20T05:41:24;96875.22;;;4.94;80.35
31775;BME280;66189;49.000;11.640;2023-02-20T05:43:24;96865.91;;;4.91;80.60
31775;BME280;66189;49.000;11.640;2023-02-20T05:45:24;96881.03;;;4.96;80.55
31775;BME280;66189;49.000;11.640;2023-02-20T05:47:25;96870.97;;;4.93;80.65
31775;BME280;66189;49.000;11.640;2023-02-20T05:49:25;96871.34;;;5.00;80.09
31775;BME280;66189;49.000;11.640;2023-02-20T05:51:26;96871.16;;;4.96;80.28
31775;BME280;66189;49.000;11.640;2023-02-20T05:53:28;96868.28;;;4.93;80.50
31775;BME280;66189;49.000;11.640;2023-02-20T05:55:28;96873.63;;;4.93;80.22
31775;BME280;66189;49.000;11.640;2023-02-20T05:57:30;96884.50;;;4.96;80.22
31775;BME280;66189;49.000;11.640;2023-02-20T05:59:30;96878.94;;;4.93;80.28
31775;BME280;66189;49.000;11.640;2023-02-20T06:01:30;96881.25;;;5.00;80.28
31775;BME280;66189;49.000;11.640;2023-02-20T06:03:31;96885.38;;;4.92;79.60
31775;BME280;66189;49.000;11.640;2023-02-20T06:05:31;96871.56;;;4.90;80.02
31775;BME280;66189;49.000;11.640;2023-02-20T06:07:32;96880.94;;;4.87;80.06
31775;BME280;66189;49.000;11.640;2023-02-20T06:09:32;96883.09;;;4.85;80.07
31775;BME280;66189;49.000;11.640;2023-02-20T06:11:33;96891.69;;;4.82;80.19
31775;BME280;66189;49.000;11.640;2023-02-20T06:13:33;96879.97;;;4.83;80.28
31775;BME280;66189;49.000;11.640;2023-02-20T06:15:34;96889.72;;;4.88;79.59
31775;BME280;66189;49.000;11.640;2023-02-20T06:17:34;96885.19;;;4.88;79.83
31775;BME280;66189;49.000;11.640;2023-02-20T06:19:35;96898.63;;;4.83;80.27
31775;BME280;66189;49.000;11.640;2023-02-20T06:21:35;96895.97;;;4.83;80.37
31775;BME280;66189;49.000;11.640;2023-02-20T06:23:37;96895.38;;;4.86;80.32
31775;BME280;66189;49.000;11.640;2023-02-20T06:25:37;96901.97;;;4.89;79.91
31775;BME280;66189;49.000;11.640;2023-02-20T06:27:38;96905.72;;;4.88;80.08
31775;BME280;66189;49.000;11.640;2023-02-20T06:29:38;96906.31;;;4.85;80.43
31775;BME280;66189;49.000;11.640;2023-02-20T06:31:38;96904.13;;;4.87;80.30
31775;BME280;66189;49.000;11.640;2023-02-20T06:33:39;96918.06;;;4.84;80.45
31775;BME280;66189;49.000;11.640;2023-02-20T06:35:39;96910.25;;;4.87;80.34
31775;BME280;66189;49.000;11.640;2023-02-20T06:37:39;96902.94;;;4.93;80.34
31775;BME280;66189;49.000;11.640;2023-02-20T06:39:40;96905.91;;;4.91;79.80
31775;BME280;66189;49.000;11.640;2023-02-20T06:41:42;96904.13;;;4.87;80.42
31775;BME280;66189;49.000;11.640;2023-02-20T06:43:43;96900.59;;;4.91;80.24
31775;BME280;66189;49.000;11.640;2023-02-20T06:45:44;96905.03;;;4.82;80.83
31775;BME280;66189;49.000;11.640;2023-02-20T06:47:44;96909.47;;;4.87;80.26
31775;BME280;66189;49.000;11.640;2023-02-20T06:49:45;96902.34;;;4.96;80.02
31775;BME280;66189;49.000;11.640;2023-02-20T06:51:45;96899.81;;;4.91;80.24
31775;BME280;66189;49.000;11.640;2023-02-20T06:53:45;96912.84;;;4.92;80.47
31775;BME280;66189;49.000;11.640;2023-02-20T06:55:46;96904.72;;;4.97;79.75
31775;BME280;66189;49.000;11.640;2023-02-20T06:57:46;96909.88;;;4.94;80.28
31775;BME280;66189;49.000;11.640;2023-02-20T06:59:46;96923.50;;;4.92;80.06
31775;BME280;66189;49.000;11.640;2023-02-20T07:01:48;96914.63;;;4.97;79.67
31775;BME280;66189;49.000;11.640;2023-02-20T07:03:49;96914.31;;;4.98;79.61
31775;BME280;66189;49.000;11.640;2023-02-20T07:05:49;96908.09;;;5.03;79.48
31775;BME280;66189;49.000;11.640;2023-02-20T07:07:50;96914.09;;;4.95;79.65
31775;BME280;66189;49.000;11.640;2023-02-20T07:09:50;96907.91;;;5.00;79.12
31775;BME280;66189;49.000;11.640;2023-02-20T07:11:51;96905.44;;;5.03;78.98
31775;BME280;66189;49.000;11.640;2023-02-20T07:13:51;96904.66;;;5.03;78.84
31775;BME280;66189;49.000;11.640;2023-02-20T07:15:52;96903.84;;;5.02;78.98
31775;BME280;66189;49.000;11.640;2023-02-20T07:17:52;96909.69;;;5.04;79.35
31775;BME280;66189;49.000;11.640;2023-02-20T07:19:52;96913.13;;;5.05;78.93
31775;BME280;66189;49.000;11.640;2023-02-20T07:21:53;96915.69;;;5.10;78.76
31775;BME280;66189;49.000;11.640;2023-02-20T07:23:53;96910.47;;;5.05;79.37
31775;BME280;66189;49.000;11.640;2023-02-20T07:25:54;96901.38;;;5.06;79.47
31775;BME280;66189;49.000;11.640;2023-02-20T07:27:54;96903.44;;;5.09;79.22
31775;BME280;66189;49.000;11.640;2023-02-20T07:29:54;96903.63;;;5.12;79.16
31775;BME280;66189;49.000;11.640;2023-02-20T07:31:55;96902.34;;;5.10;79.11
31775;BME280;66189;49.000;11.640;2023-02-20T07:33:55;96906.78;;;5.14;79.16
31775;BME280;66189;49.000;11.640;2023-02-20T07:35:56;96908.19;;;5.12;79.18
31775;BME280;66189;49.000;11.640;2023-02-20T07:37:57;96903.03;;;5.15;78.64
31775;BME280;66189;49.000;11.640;2023-02-20T07:39:57;96898.78;;;5.14;78.54
31775;BME280;66189;49.000;11.640;2023-02-20T07:41:58;96896.03;;;5.20;79.21
31775;BME280;66189;49.000;11.640;2023-02-20T07:44:27;96893.97;;;5.16;79.13
31775;BME280;66189;49.000;11.640;2023-02-20T07:46:28;96908.06;;;5.17;78.78
31775;BME280;66189;49.000;11.640;2023-02-20T07:48:32;96908.06;;;5.17;79.02
31775;BME280;66189;49.000;11.640;2023-02-20T07:50:33;96905.69;;;5.15;79.22
31775;BME280;66189;49.000;11.640;2023-02-20T07:52:34;96919.16;;;5.10;79.32
31775;BME280;66189;49.000;11.640;2023-02-20T07:54:34;96916.84;;;5.18;78.69
31775;BME280;66189;49.000;11.640;2023-02-20T07:56:34;96918.56;;;5.13;78.89
31775;BME280;66189;49.000;11.640;2023-02-20T07:58:35;96919.16;;;5.10;79.16
31775;BME280;66189;49.000;11.640;2023-02-20T08:00:35;96918.44;;;5.19;79.15
31775;BME280;66189;49.000;11.640;2023-02-20T08:02:36;96917.97;;;5.16;79.45
31775;BME280;66189;49.000;11.640;2023-02-20T08:04:36;96903.44;;;5.23;79.42
31775;BME280;66189;49.000;11.640;2023-02-20T08:06:36;96897.09;;;5.32;78.64
31775;BME280;66189;49.000;11.640;2023-02-20T08:08:36;96893.06;;;5.21;78.85
31775;BME280;66189;49.000;11.640;2023-02-20T08:10:37;96903.53;;;5.18;79.08
31775;BME280;66189;49.000;11.640;2023-02-20T08:12:37;96904.94;;;5.15;79.20
31775;BME280;66189;49.000;11.640;2023-02-20T08:14:37;96893.97;;;5.16;78.81
31775;BME280;66189;49.000;11.640;2023-02-20T08:16:38;96886.91;;;5.21;78.39
31775;BME280;66189;49.000;11.640;2023-02-20T08:18:38;96890.78;;;5.28;79.43
31775;BME280;66189;49.000;11.640;2023-02-20T08:20:38;96894.72;;;5.31;79.13
31775;BME280;66189;49.000;11.640;2023-02-20T08:22:39;96907.44;;;5.34;78.71
31775;BME280;66189;49.000;11.640;2023-02-20T08:24:42;96907.66;;;5.38;78.23
31775;BME280;66189;49.000;11.640;2023-02-20T08:26:46;96914.94;;;5.46;78.08
31775;BME280;66189;49.000;11.640;2023-02-20T08:28:47;96908.63;;;5.42;77.96
31775;BME280;66189;49.000;11.640;2023-02-20T08:30:47;96911.00;;;5.43;78.82
31775;BME280;66189;49.000;11.640;2023-02-20T08:32:47;96911.19;;;5.47;78.05
31775;BME280;66189;49.000;11.640;2023-02-20T08:34:48;96902.88;;;5.48;78.03
31775;BME280;66189;49.000;11.640;2023-02-20T08:36:48;96896.34;;;5.55;78.22
31775;BME280;66189;49.000;11.640;2023-02-20T08:38:48;96893.94;;;5.67;77.64
31775;BME280;66189;49.000;11.640;2023-02-20T08:40:49;96892.72;;;5.73;76.58
31775;BME280;66189;49.000;11.640;2023-02-20T08:42:49;96884.03;;;5.90;76.68
31775;BME280;66189;49.000;11.640;2023-02-20T08:44:50;96889.97;;;6.01;75.96
31775;BME280;66189;49.000;11.640;2023-02-20T08:46:50;96880.47;;;6.17;75.38
31775;BME280;66189;49.000;11.640;2023-02-20T08:48:51;96860.78;;;6.04;75.40
31775;BME280;66189;49.000;11.640;2023-02-20T08:50:51;96873.34;;;6.35;73.51
31775;BME280;66189;49.000;11.640;2023-02-20T08:52:51;96859.28;;;6.52;74.15
31775;BME280;66189;49.000;11.640;2023-02-20T08:54:52;96870.94;;;6.56;73.90
31775;BME280;66189;49.000;11.640;2023-02-20T08:56:52;96858.19;;;6.53;73.17
31775;BME280;66189;49.000;11.640;2023-02-20T08:58:53;96861.94;;;6.52;72.63
31775;BME280;66189;49.000;11.640;2023-02-20T09:00:53;96858.66;;;6.55;73.22
31775;BME280;66189;49.000;11.640;2023-02-20T09:02:54;96875.28;;;6.44;73.04
31775;BME280;66189;49.000;11.640;2023-02-20T09:04:55;96851.22;;;6.44;71.82
31775;BME280;66189;49.000;11.640;2023-02-20T09:06:55;96851.06;;;6.40;72.19
31775;BME280;66189;49.000;11.640;2023-02-20T09:08:55;96835.00;;;6.40;72.58
31775;BME280;66189;49.000;11.640;2023-02-20T09:10:56;96837.06;;;6.43;71.92
31775;BME280;66189;49.000;11.640;2023-02-20T09:12:56;96836.34;;;6.51;71.79
31775;BME280;66189;49.000;11.640;2023-02-20T09:14:57;96831.38;;;6.76;71.63
31775;BME280;66189;49.000;11.640;2023-02-20T09:16:59;96834.69;;;6.90;71.93
31775;BME280;66189;49.000;11.640;2023-02-20T09:19:00;96826.09;;;7.11;70.99
31775;BME280;66189;49.000;11.640;2023-02-20T09:21:00;96820.75;;;7.28;69.33
31775;BME280;66189;49.000;11.640;2023-02-20T09:23:00;96820.75;;;7.46;67.98
31775;BME280;66189;49.000;11.640;2023-02-20T09:25:01;96807.53;;;7.67;67.36
31775;BME280;66189;49.000;11.640;2023-02-20T09:27:02;96824.00;;;7.95;66.64
31775;BME280;66189;49.000;11.640;2023-02-20T09:29:04;96815.19;;;7.86;65.91
31775;BME280;66189;49.000;11.640;2023-02-20T09:31:07;96823.53;;;8.02;66.70
31775;BME280;66189;49.000;11.640;2023-02-20T09:33:07;96817.28;;;7.80;66.07
31775;BME280;66189;49.000;11.640;2023-02-20T09:35:09;96825.78;;;7.65;66.57
31775;BME280;66189;49.000;11.640;2023-02-20T09:37:10;96819.97;;;7.80;67.45
31775;BME280;66189;49.000;11.640;2023-02-20T09:39:10;96816.78;;;7.96;66.86
31775;BME280;66189;49.000;11.640;2023-02-20T09:41:13;96815.50;;;8.02;66.41
31775;BME280;66189;49.000;11.640;2023-02-20T09:43:35;96812.97;;;8.06;65.77
31775;BME280;66189;49.000;11.640;2023-02-20T09:45:40;96817.69;;;8.09;65.57
31775;BME280;66189;49.000;11.640;2023-02-20T09:49:51;96823.66;;;8.62;64.24
31775;BME280;66189;49.000;11.640;2023-02-20T09:51:54;96818.91;;;8.67;62.71
31775;BME280;66189;49.000;11.640;2023-02-20T09:56:02;96807.19;;;8.81;62.38
31775;BME280;66189;49.000;11.640;2023-02-20T09:58:03;96807.91;;;8.90;62.02
31775;BME280;66189;49.000;11.640;2023-02-20T10:00:07;96818.16;;;9.18;62.70
31775;BME280;66189;49.000;11.640;2023-02-20T10:02:13;96810.03;;;8.76;62.74
31775;BME280;66189;49.000;11.640;2023-02-20T10:04:16;96811.69;;;8.59;62.43
31775;BME280;66189;49.000;11.640;2023-02-20T10:06:19;96803.78;;;8.93;62.45
31775;BME280;66189;49.000;11.640;2023-02-20T10:08:20;96803.78;;;8.93;62.25
31775;BME280;66189;49.000;11.640;2023-02-20T10:10:22;96792.88;;;9.40;60.77
31775;BME280;66189;49.000;11.640;2023-02-20T10:12:29;96796.41;;;9.11;60.72
31775;BME280;66189;49.000;11.640;2023-02-20T10:19:09;96797.44;;;9.39;60.36
31775;BME280;66189;49.000;11.640;2023-02-20T10:21:30;96795.69;;;9.77;59.46
31775;BME280;66189;49.000;11.640;2023-02-20T10:23:40;96790.53;;;10.05;59.65
31775;BME280;66189;49.000;11.640;2023-02-20T10:25:47;96783.44;;;10.34;59.11
31775;BME280;66189;49.000;11.640;2023-02-20T10:27:59;96777.25;;;10.34;59.73
31775;BME280;66189;49.000;11.640;2023-02-20T10:30:02;96789.69;;;10.51;58.80
31775;BME280;66189;49.000;11.640;2023-02-20T10:34:05;96777.47;;;10.65;57.55
31775;BME280;66189;49.000;11.640;2023-02-20T10:36:19;96788.34;;;10.44;57.21
31775;BME280;66189;49.000;11.640;2023-02-20T10:38:24;96785.59;;;10.07;57.83
31775;BME280;66189;49.000;11.640;2023-02-20T10:40:27;96782.09;;;10.65;58.11
31775;BME280;66189;49.000;11.640;2023-02-20T10:42:38;96770.66;;;10.68;56.97
31775;BME280;66189;49.000;11.640;2023-02-20T10:45:25;96771.75;;;10.79;57.39
31775;BME280;66189;49.000;11.640;2023-02-20T10:49:12;96759.91;;;10.43;56.26
31775;BME280;66189;49.000;11.640;2023-02-20T10:51:24;96751.47;;;10.70;55.94
31775;BME280;66189;49.000;11.640;2023-02-20T10:55:39;96742.50;;;10.65;57.32
31775;BME280;66189;49.000;11.640;2023-02-20T11:00:02;96746.31;;;10.64;55.18
31775;BME280;66189;49.000;11.640;2023-02-20T11:02:04;96743.25;;;10.91;54.41
31775;BME280;66189;49.000;11.640;2023-02-20T11:04:11;96737.88;;;10.91;53.90
31775;BME280;66189;49.000;11.640;2023-02-20T11:06:16;96747.97;;;10.81;55.43
31775;BME280;66189;49.000;11.640;2023-02-20T11:08:16;96740.81;;;10.86;53.00
31775;BME280;66189;49.000;11.640;2023-02-20T11:10:20;96723.31;;;10.92;54.83
31775;BME280;66189;49.000;11.640;2023-02-20T11:12:25;96722.84;;;11.30;53.73
31775;BME280;66189;49.000;11.640;2023-02-20T11:14:39;96726.97;;;11.28;53.13
31775;BME280;66189;49.000;11.640;2023-02-20T11:16:43;96713.38;;;11.36;52.77
31775;BME280;66189;49.000;11.640;2023-02-20T11:18:44;96717.59;;;11.22;52.94
31775;BME280;66189;49.000;11.640;2023-02-20T11:20:45;96716.34;;;11.47;52.73
31775;BME280;66189;49.000;11.640;2023-02-20T11:22:46;96713.47;;;11.40;52.59
31775;BME280;66189;49.000;11.640;2023-02-20T11:24:48;96704.06;;;11.34;53.09
31775;BME280;66189;49.000;11.640;2023-02-20T11:26:48;96713.47;;;11.12;53.61
31775;BME280;66189;49.000;11.640;2023-02-20T11:31:11;96706.38;;;10.79;53.14
31775;BME280;66189;49.000;11.640;2023-02-20T11:37:15;96695.19;;;11.17;52.54